createdAt,value
2023-01-23T00:01:35.580Z,583.35
2023-01-23T00:04:06.009Z,574.80
2023-01-23T00:06:34.089Z,577.70
2023-01-23T00:09:02.081Z,578.55
2023-01-23T00:11:30.530Z,578.17
2023-01-23T00:13:59.423Z,576.85
2023-01-23T00:16:30.592Z,577.28
2023-01-23T00:18:58.869Z,571.03
2023-01-23T00:21:29.423Z,568.67
2023-01-23T00:23:59.870Z,551.05
2023-01-23T00:26:30.258Z,573.83
2023-01-23T00:28:58.300Z,571.35
2023-01-23T00:31:30.754Z,566.03
2023-01-23T00:34:02.021Z,574.67
2023-01-23T00:36:48.097Z,573.05
2023-01-23T00:39:21.594Z,561.90
2023-01-23T00:44:17.928Z,566.40
2023-01-23T00:46:46.310Z,564.30
2023-01-23T00:49:14.305Z,557.90
2023-01-23T00:51:45.463Z,565.45
2023-01-23T00:54:13.354Z,561.65
2023-01-23T00:56:41.350Z,555.90
2023-01-23T00:59:09.415Z,565.50
2023-01-23T01:01:38.202Z,565.08
2023-01-23T01:04:06.548Z,549.92
2023-01-23T01:06:34.493Z,558.42
2023-01-23T01:09:02.922Z,563.45
2023-01-23T01:11:30.962Z,557.90
2023-01-23T01:14:01.570Z,554.17
2023-01-23T01:16:29.773Z,557.92
2023-01-23T01:18:59.507Z,560.63
2023-01-23T01:21:27.821Z,564.92
2023-01-23T01:23:56.053Z,562.22
2023-01-23T01:26:25.141Z,553.05
2023-01-23T01:28:53.033Z,559.97
2023-01-23T01:31:20.933Z,554.05
2023-01-23T01:33:50.058Z,551.75
2023-01-23T01:36:21.841Z,549.35
2023-01-23T01:38:49.751Z,558.75
2023-01-23T01:41:18.247Z,558.50
2023-01-23T01:43:46.751Z,552.60
2023-01-23T01:46:23.256Z,544.05
2023-01-23T01:48:59.263Z,549.05
2023-01-23T01:51:33.279Z,551.17
2023-01-23T01:54:03.631Z,547.03
2023-01-23T01:56:35.781Z,554.15
2023-01-23T01:59:05.114Z,557.72
2023-01-23T02:01:33.543Z,533.53
2023-01-23T02:04:05.191Z,555.35
2023-01-23T02:06:33.301Z,544.33
2023-01-23T02:09:17.904Z,588.92
2023-01-23T02:11:47.094Z,569.60
2023-01-23T02:14:15.151Z,570.60
2023-01-23T02:16:50.428Z,568.15
2023-01-23T02:19:32.451Z,567.42
2023-01-23T02:22:12.639Z,598.50
2023-01-23T02:24:50.165Z,607.20
2023-01-23T02:27:19.820Z,598.78
2023-01-23T02:29:48.671Z,569.30
2023-01-23T02:32:17.146Z,580.90
2023-01-23T02:34:45.365Z,553.67
2023-01-23T02:37:14.773Z,574.88
2023-01-23T02:39:42.841Z,584.88
2023-01-23T02:42:13.241Z,574.75
2023-01-23T02:44:46.844Z,566.53
2023-01-23T02:47:16.911Z,577.63
2023-01-23T02:49:45.171Z,577.95
2023-01-23T02:52:13.456Z,569.28
2023-01-23T02:54:41.402Z,566.78
2023-01-23T02:57:11.022Z,565.10
2023-01-23T02:59:58.282Z,544.60
2023-01-23T03:02:27.980Z,560.00
2023-01-23T03:04:56.073Z,549.80
2023-01-23T03:07:24.112Z,566.13
2023-01-23T03:09:52.236Z,556.13
2023-01-23T03:12:20.321Z,557.15
2023-01-23T03:14:50.151Z,532.30
2023-01-23T03:17:19.501Z,554.13
2023-01-23T03:19:47.521Z,549.13
2023-01-23T03:22:15.832Z,531.90
2023-01-23T03:24:43.873Z,535.63
2023-01-23T03:27:11.921Z,549.10
2023-01-23T03:30:03.433Z,544.92
2023-01-23T03:32:31.655Z,550.25
2023-01-23T03:35:00.117Z,559.03
2023-01-23T03:37:29.075Z,562.22
2023-01-23T03:40:17.593Z,547.00
2023-01-23T03:42:45.594Z,544.58
2023-01-23T03:45:16.315Z,547.55
2023-01-23T03:47:44.417Z,556.38
2023-01-23T03:50:12.439Z,559.95
2023-01-23T03:52:41.351Z,541.60
2023-01-23T03:55:10.434Z,540.60
2023-01-23T03:57:39.395Z,569.05
2023-01-23T04:00:08.210Z,548.17
2023-01-23T04:02:44.273Z,573.10
2023-01-23T04:05:15.120Z,568.88
2023-01-23T04:07:43.031Z,562.28
2023-01-23T04:10:13.136Z,567.63
2023-01-23T04:12:43.441Z,570.65
2023-01-23T04:15:12.554Z,565.22
2023-01-23T04:17:42.426Z,566.30
2023-01-23T04:20:11.903Z,550.13
2023-01-23T04:22:43.284Z,560.58
2023-01-23T04:25:11.537Z,532.55
2023-01-23T04:27:39.662Z,549.35
2023-01-23T04:30:10.261Z,548.30
2023-01-23T04:32:38.322Z,550.83
2023-01-23T04:35:06.794Z,546.78
2023-01-23T04:37:37.362Z,551.00
2023-01-23T04:40:05.992Z,547.90
2023-01-23T04:42:42.680Z,539.80
2023-01-23T04:45:30.925Z,538.25
2023-01-23T04:48:19.903Z,556.90
2023-01-23T04:50:50.109Z,545.75
2023-01-23T04:53:18.361Z,551.55
2023-01-23T04:55:50.112Z,546.83
2023-01-23T04:58:19.981Z,530.22
2023-01-23T05:00:48.167Z,543.28
2023-01-23T05:03:17.344Z,547.05
2023-01-23T05:05:48.548Z,546.90
2023-01-23T05:08:16.801Z,547.30
2023-01-23T05:10:51.286Z,550.55
2023-01-23T05:13:21.052Z,545.80
2023-01-23T05:15:49.021Z,541.10
2023-01-23T05:18:17.965Z,528.45
2023-01-23T05:20:47.256Z,537.42
2023-01-23T05:23:15.394Z,542.35
2023-01-23T05:25:50.675Z,542.63
2023-01-23T05:28:18.723Z,533.35
2023-01-23T05:30:53.755Z,520.72
2023-01-23T05:33:28.863Z,540.42
2023-01-23T05:36:00.722Z,527.10
2023-01-23T05:38:28.871Z,533.42
2023-01-23T05:40:56.912Z,524.13
2023-01-23T05:44:03.536Z,540.15
2023-01-23T05:46:41.400Z,537.65
2023-01-23T05:49:09.635Z,541.97
2023-01-23T05:51:38.518Z,546.25
2023-01-23T05:54:07.948Z,549.72
2023-01-23T05:56:36.164Z,549.40
2023-01-23T05:59:22.622Z,539.25
2023-01-23T06:02:11.073Z,544.53
2023-01-23T06:04:57.335Z,540.78
2023-01-23T06:07:35.793Z,547.10
2023-01-23T06:10:10.016Z,546.65
2023-01-23T06:12:38.245Z,543.33
2023-01-23T06:15:06.564Z,544.40
2023-01-23T06:17:34.691Z,549.05
2023-01-23T06:20:03.469Z,551.30
2023-01-23T06:22:32.176Z,552.13
2023-01-23T06:25:07.985Z,548.50
2023-01-23T06:27:35.973Z,552.30
2023-01-23T06:30:07.420Z,547.63
2023-01-23T06:32:40.508Z,545.50
2023-01-23T06:35:09.922Z,548.58
2023-01-23T06:37:41.162Z,544.13
2023-01-23T06:40:14.830Z,540.72
2023-01-23T06:42:54.391Z,538.53
2023-01-23T06:45:22.647Z,543.38
2023-01-23T06:47:54.887Z,541.30
2023-01-23T06:50:23.671Z,547.53
2023-01-23T06:52:51.507Z,542.35
2023-01-23T06:55:21.432Z,547.85
2023-01-23T06:57:49.811Z,546.47
2023-01-23T07:00:18.422Z,548.45
2023-01-23T07:02:46.876Z,536.95
2023-01-23T07:05:15.351Z,536.33
2023-01-23T07:07:46.958Z,540.67
2023-01-23T07:10:14.876Z,538.75
2023-01-23T07:12:43.338Z,536.08
2023-01-23T07:15:11.764Z,546.42
2023-01-23T07:17:41.463Z,549.33
2023-01-23T07:20:10.168Z,545.20
2023-01-23T07:22:43.245Z,545.58
2023-01-23T07:25:11.205Z,543.33
2023-01-23T07:27:39.082Z,533.67
2023-01-23T07:30:07.611Z,543.20
2023-01-23T07:32:35.521Z,544.25
2023-01-23T07:35:03.481Z,534.03
2023-01-23T07:37:31.523Z,543.25
2023-01-23T07:39:59.386Z,527.95
2023-01-23T07:42:27.344Z,522.13
2023-01-23T07:44:55.181Z,543.88
2023-01-23T07:47:23.028Z,538.63
2023-01-23T07:49:50.919Z,538.88
2023-01-23T07:52:18.824Z,535.72
2023-01-23T07:54:46.708Z,541.15
2023-01-23T07:57:15.133Z,538.67
2023-01-23T07:59:43.011Z,513.38
2023-01-23T08:02:11.525Z,519.28
2023-01-23T08:04:39.739Z,528.75
2023-01-23T08:07:07.636Z,523.28
2023-01-23T08:09:35.633Z,502.10
2023-01-23T08:12:03.711Z,509.85
2023-01-23T08:14:31.715Z,525.92
2023-01-23T08:17:01.764Z,513.67
2023-01-23T08:19:29.682Z,528.45
2023-01-23T08:21:57.532Z,533.10
2023-01-23T08:24:25.433Z,532.58
2023-01-23T08:26:53.288Z,544.03
2023-01-23T08:29:21.200Z,543.08
2023-01-23T08:31:49.106Z,541.75
2023-01-23T08:34:16.973Z,541.85
2023-01-23T08:36:44.800Z,546.17
2023-01-23T08:39:12.631Z,546.03
2023-01-23T08:41:40.462Z,546.72
2023-01-23T08:44:08.378Z,543.88
2023-01-23T08:46:36.282Z,550.88
2023-01-23T08:49:05.206Z,551.55
2023-01-23T08:51:33.931Z,547.72
2023-01-23T08:54:01.826Z,550.13
2023-01-23T08:56:29.739Z,554.55
2023-01-23T08:58:57.740Z,552.70
2023-01-23T09:01:27.215Z,555.35
2023-01-23T09:03:55.351Z,559.10
2023-01-23T09:06:23.549Z,554.00
2023-01-23T09:08:51.619Z,555.30
2023-01-23T09:11:20.113Z,558.55
2023-01-23T09:13:48.214Z,540.58
2023-01-23T09:16:17.275Z,565.42
2023-01-23T09:18:45.281Z,550.83
2023-01-23T09:21:17.574Z,553.10
2023-01-23T09:23:45.736Z,558.72
2023-01-23T09:26:15.388Z,559.95
2023-01-23T09:28:43.793Z,562.30
2023-01-23T09:31:14.170Z,566.30
2023-01-23T09:33:42.532Z,563.63
2023-01-23T09:36:11.601Z,561.40
2023-01-23T09:38:39.752Z,546.65
2023-01-23T09:41:17.606Z,556.85
2023-01-23T09:43:54.432Z,569.88
2023-01-23T09:46:29.230Z,542.97
2023-01-23T09:49:09.469Z,546.97
2023-01-23T09:52:02.263Z,559.75
2023-01-23T09:54:44.735Z,559.63
2023-01-23T09:57:16.629Z,552.55
2023-01-23T10:00:00.163Z,553.78
2023-01-23T10:02:31.049Z,556.03
2023-01-23T10:05:02.985Z,556.85
2023-01-23T10:07:40.591Z,553.75
2023-01-23T10:10:45.952Z,618.88
2023-01-23T10:13:23.234Z,600.10
2023-01-23T10:16:13.735Z,612.67
2023-01-23T10:19:08.089Z,611.70
2023-01-23T10:22:22.847Z,606.95
2023-01-23T10:24:55.140Z,607.83
2023-01-23T10:27:26.901Z,608.05
2023-01-23T10:30:29.955Z,613.70
2023-01-23T10:32:57.811Z,615.30
2023-01-23T10:35:47.513Z,622.97
2023-01-23T10:38:35.355Z,626.60
2023-01-23T10:41:15.310Z,632.78
2023-01-23T10:43:46.343Z,608.53
2023-01-23T10:46:20.408Z,623.22
2023-01-23T10:48:52.682Z,587.10
2023-01-23T10:51:38.703Z,634.58
2023-01-23T10:54:11.363Z,608.07
2023-01-23T10:57:03.272Z,638.97
2023-01-23T10:59:36.238Z,625.15
2023-01-23T11:02:31.496Z,634.17
2023-01-23T11:05:00.636Z,598.70
2023-01-23T11:07:33.441Z,630.57
2023-01-23T11:10:07.722Z,634.13
2023-01-23T11:12:48.101Z,634.77
2023-01-23T11:15:27.260Z,636.77
2023-01-23T11:17:57.023Z,633.83
2023-01-23T11:20:37.430Z,637.37
2023-01-23T11:23:08.710Z,633.73
2023-01-23T11:25:42.426Z,633.97
2023-01-23T11:28:48.769Z,640.43
2023-01-23T11:31:21.846Z,636.50
2023-01-23T11:34:10.484Z,637.13
2023-01-23T11:37:08.333Z,642.53
2023-01-23T11:40:15.470Z,637.73
2023-01-23T11:42:44.162Z,636.93
2023-01-23T11:45:36.131Z,642.27
2023-01-23T11:48:42.510Z,644.07
2023-01-23T11:51:38.431Z,639.43
2023-01-23T11:54:30.266Z,644.37
2023-01-23T11:57:24.625Z,642.40
2023-01-23T12:00:02.189Z,641.27
2023-01-23T12:03:04.584Z,638.73
2023-01-23T12:05:38.856Z,633.43
2023-01-23T12:08:35.775Z,644.73
2023-01-23T12:11:16.558Z,645.43
2023-01-23T12:14:18.621Z,638.93
2023-01-23T12:16:53.973Z,643.57
2023-01-23T12:19:40.551Z,627.90
2023-01-23T12:22:11.307Z,638.67
2023-01-23T12:24:47.097Z,641.33
2023-01-23T12:27:24.197Z,640.37
2023-01-23T12:30:23.221Z,635.40
2023-01-23T12:33:19.467Z,640.33
2023-01-23T12:35:54.480Z,643.97
2023-01-23T12:38:28.576Z,649.03
2023-01-23T12:41:14.732Z,639.43
2023-01-23T12:43:59.816Z,649.37
2023-01-23T12:46:44.487Z,627.53
2023-01-23T12:49:21.623Z,655.83
2023-01-23T12:52:18.474Z,651.27
2023-01-23T12:54:52.211Z,650.73
2023-01-23T12:57:52.598Z,641.77
2023-01-23T13:00:53.173Z,633.63
2023-01-23T13:03:51.952Z,659.23
2023-01-23T13:06:37.465Z,674.40
2023-01-23T13:09:20.186Z,672.57
2023-01-23T13:12:08.972Z,683.80
2023-01-23T13:15:13.930Z,650.47
2023-01-23T13:17:45.420Z,722.73
2023-01-23T13:20:38.645Z,732.97
2023-01-23T13:23:24.796Z,686.25
2023-01-23T13:26:16.041Z,674.07
2023-01-23T13:28:57.820Z,649.37
2023-01-23T13:31:47.143Z,699.63
2023-01-23T13:34:18.559Z,706.73
2023-01-23T13:36:51.567Z,703.73
2023-01-23T13:39:30.317Z,652.03
2023-01-23T13:42:16.229Z,700.97
2023-01-23T13:45:27.483Z,702.80
2023-01-23T15:05:59.643Z,729.73
2023-01-23T15:08:32.511Z,745.50
2023-01-23T15:11:01.950Z,728.92
2023-01-23T15:13:35.717Z,704.60
2023-01-23T15:16:07.106Z,691.67
2023-01-23T15:18:36.647Z,708.03
2023-01-23T15:21:08.934Z,704.07
2023-01-23T15:23:38.850Z,701.30
2023-01-23T15:26:18.870Z,711.87
2023-01-23T15:28:57.761Z,707.00
2023-01-23T15:31:33.614Z,720.03
2023-01-23T15:34:20.730Z,698.53
2023-01-23T15:37:19.167Z,723.83
2023-01-23T15:39:47.008Z,704.40
2023-01-23T15:42:14.923Z,710.30
2023-01-23T15:44:43.644Z,652.73
2023-01-23T15:47:11.727Z,716.37
2023-01-23T15:49:40.651Z,709.97
2023-01-23T15:52:46.227Z,705.17
2023-01-23T15:55:15.315Z,630.67
2023-01-23T15:57:43.992Z,725.83
2023-01-23T16:00:16.775Z,713.93
2023-01-23T16:02:55.741Z,708.58
2023-01-23T16:05:37.504Z,665.27
2023-01-23T16:08:14.148Z,652.13
2023-01-23T16:10:42.230Z,658.17
2023-01-23T16:13:14.125Z,667.70
2023-01-23T16:15:42.372Z,654.50
2023-01-23T16:18:10.653Z,657.60
2023-01-23T16:20:43.815Z,646.33
2023-01-23T16:23:15.549Z,664.85
2023-01-23T16:25:46.140Z,662.47
2023-01-23T16:28:21.378Z,656.87
2023-01-23T16:30:52.013Z,648.80
2023-01-23T16:33:21.036Z,655.03
2023-01-23T16:35:51.087Z,655.00
2023-01-23T16:38:28.301Z,650.07
2023-01-23T16:40:59.759Z,634.43
2023-01-23T16:43:28.076Z,651.00
2023-01-23T16:45:56.879Z,648.03
2023-01-23T16:48:28.506Z,660.80
2023-01-23T16:51:08.607Z,639.87
2023-01-23T16:53:40.985Z,651.25
2023-01-23T16:56:20.568Z,651.30
2023-01-23T16:58:49.732Z,648.80
2023-01-23T17:01:23.308Z,645.73
2023-01-23T17:04:04.056Z,631.23
2023-01-23T17:06:32.332Z,644.83
2023-01-23T17:09:00.278Z,647.40
2023-01-23T17:11:34.366Z,655.90
2023-01-23T17:14:09.550Z,652.17
2023-01-23T17:16:37.505Z,653.73
2023-01-23T17:19:16.668Z,654.30
2023-01-23T17:21:46.225Z,660.60
2023-01-23T17:24:17.989Z,660.27
2023-01-23T17:26:46.459Z,661.43
2023-01-23T17:29:15.413Z,665.10
2023-01-23T17:31:43.851Z,664.63
2023-01-23T17:34:24.332Z,659.33
2023-01-23T17:36:54.612Z,669.70
2023-01-23T17:39:22.674Z,673.43
2023-01-23T17:41:51.607Z,673.60
2023-01-23T17:44:19.626Z,681.63
2023-01-23T17:46:48.036Z,673.27
2023-01-23T17:49:30.539Z,681.40
2023-01-23T17:51:59.801Z,686.60
2023-01-23T17:54:29.072Z,684.13
2023-01-23T17:56:56.990Z,688.07
2023-01-23T17:59:25.110Z,691.77
2023-01-23T18:01:53.258Z,685.87
2023-01-23T18:04:23.067Z,679.67
2023-01-23T18:06:51.497Z,685.53
2023-01-23T18:09:20.557Z,683.67
2023-01-23T18:11:52.722Z,681.33
2023-01-23T18:14:48.099Z,683.10
2023-01-23T18:17:28.847Z,688.10
2023-01-23T18:19:57.108Z,692.30
2023-01-23T18:22:25.358Z,692.87
2023-01-23T18:24:53.551Z,693.10
2023-01-23T18:27:26.607Z,641.10
2023-01-23T18:30:18.737Z,690.85
2023-01-23T18:32:46.643Z,692.83
2023-01-23T18:35:35.475Z,694.00
2023-01-23T18:38:06.161Z,694.63
2023-01-23T18:40:58.331Z,688.23
2023-01-23T18:43:33.927Z,689.60
2023-01-23T18:46:02.094Z,687.07
2023-01-23T18:48:30.507Z,682.40
2023-01-23T18:51:14.247Z,686.27
2023-01-23T18:53:50.908Z,669.80
2023-01-23T18:56:24.970Z,640.70
2023-01-23T18:59:12.048Z,684.70
2023-01-23T19:02:09.855Z,685.27
2023-01-23T19:04:45.935Z,647.53
2023-01-23T19:07:19.087Z,681.33
2023-01-23T19:12:41.771Z,687.93
2023-01-23T19:15:33.444Z,685.08
2023-01-23T19:18:40.498Z,690.77
2023-01-23T19:21:23.723Z,585.47
2023-01-23T19:24:02.009Z,698.70
2023-01-23T19:26:34.509Z,682.40
2023-01-23T19:29:19.990Z,675.70
2023-01-23T19:32:03.701Z,689.37
2023-01-23T19:34:34.992Z,689.63
2023-01-23T19:37:03.615Z,690.93
2023-01-23T19:39:31.853Z,686.77
2023-01-23T19:42:00.439Z,691.13
2023-01-23T19:44:36.789Z,694.10
2023-01-23T19:47:34.214Z,686.73
2023-01-23T19:50:03.333Z,688.73
2023-01-23T19:52:32.472Z,693.07
2023-01-23T19:55:00.835Z,678.33
2023-01-23T19:57:29.767Z,691.83
2023-01-23T19:59:57.903Z,667.93
2023-01-23T20:02:27.000Z,664.27
2023-01-23T20:04:57.972Z,679.80
2023-01-23T20:07:27.483Z,679.27
2023-01-23T20:09:56.070Z,701.80
2023-01-23T20:12:24.208Z,705.13
2023-01-23T20:14:52.623Z,724.80
2023-01-23T20:17:20.983Z,716.00
2023-01-23T20:19:49.427Z,686.33
2023-01-23T20:22:19.603Z,711.60
2023-01-23T20:24:47.899Z,715.40
2023-01-23T20:27:15.941Z,709.40
2023-01-23T20:29:43.895Z,695.43
2023-01-23T20:32:13.209Z,669.13
2023-01-23T20:34:42.019Z,685.57
2023-01-23T20:37:11.492Z,684.23
2023-01-23T20:39:41.831Z,724.67
2023-01-23T20:42:11.444Z,721.47
2023-01-23T20:44:41.397Z,682.27
2023-01-23T20:47:11.009Z,672.20
2023-01-23T20:49:39.789Z,666.43
2023-01-23T20:52:26.201Z,680.57
2023-01-23T20:54:54.712Z,683.67
2023-01-23T20:57:22.749Z,681.70
2023-01-23T20:59:51.040Z,677.60
2023-01-23T21:02:25.791Z,682.90
2023-01-23T21:04:54.143Z,726.33
2023-01-23T21:07:22.859Z,720.70
2023-01-23T21:09:51.309Z,665.70
2023-01-23T21:12:19.584Z,679.77
2023-01-23T21:14:47.639Z,673.17
2023-01-23T21:17:15.731Z,596.47
2023-01-23T21:19:45.429Z,604.93
2023-01-23T21:22:13.801Z,680.80
2023-01-23T21:24:41.988Z,681.87
2023-01-23T21:27:10.160Z,682.90
2023-01-23T21:29:38.703Z,683.53
2023-01-23T21:32:06.737Z,684.07
2023-01-23T21:34:34.809Z,681.90
2023-01-23T21:37:05.071Z,682.97
2023-01-23T21:39:35.234Z,686.87
2023-01-23T21:42:03.275Z,684.07
2023-01-23T21:44:31.696Z,687.50
2023-01-23T21:47:00.699Z,691.67
2023-01-23T21:49:30.674Z,690.77
2023-01-23T21:51:58.634Z,692.17
2023-01-23T21:54:26.719Z,686.17
2023-01-23T21:56:54.821Z,698.43
2023-01-23T21:59:22.829Z,674.40
2023-01-23T22:01:50.858Z,693.30
2023-01-23T22:04:23.488Z,682.17
2023-01-23T22:06:57.052Z,695.08
2023-01-23T22:09:26.200Z,693.07
2023-01-23T22:11:55.084Z,674.33
2023-01-23T22:14:24.236Z,686.73
2023-01-23T22:16:52.907Z,697.37
2023-01-23T22:19:25.627Z,696.73
2023-01-23T22:21:55.427Z,687.63
2023-01-23T22:24:23.836Z,679.87
2023-01-23T22:26:51.961Z,691.43
2023-01-23T22:29:20.064Z,696.37
2023-01-23T22:31:48.156Z,683.37
2023-01-23T22:34:16.224Z,673.90
2023-01-23T22:36:44.124Z,661.17
2023-01-23T22:39:16.443Z,684.53
2023-01-23T22:41:46.372Z,739.00
2023-01-23T22:44:14.598Z,689.60
2023-01-23T22:46:43.065Z,667.73
2023-01-23T22:49:11.402Z,687.40
2023-01-23T22:51:39.426Z,678.97
2023-01-23T22:54:07.608Z,681.63
2023-01-23T22:56:35.723Z,665.13
2023-01-23T22:59:04.235Z,733.10
2023-01-23T23:01:32.374Z,722.50
2023-01-23T23:04:00.641Z,711.47
2023-01-23T23:06:28.994Z,712.77
2023-01-23T23:08:56.962Z,709.30
2023-01-23T23:11:27.872Z,674.63
2023-01-23T23:13:57.418Z,678.30
2023-01-23T23:16:28.705Z,735.67
2023-01-23T23:18:59.584Z,708.80
2023-01-23T23:21:31.789Z,707.30
2023-01-23T23:24:00.887Z,707.33
2023-01-23T23:26:31.655Z,703.40
2023-01-23T23:29:02.893Z,717.07
2023-01-23T23:31:31.142Z,730.13
2023-01-23T23:33:59.240Z,706.17
2023-01-23T23:36:27.456Z,725.40
2023-01-23T23:38:55.419Z,700.27
2023-01-23T23:41:23.356Z,661.17
2023-01-23T23:43:51.783Z,688.80
2023-01-23T23:46:19.898Z,698.63
2023-01-23T23:48:48.344Z,705.57
2023-01-23T23:51:18.983Z,701.80
2023-01-23T23:53:46.911Z,706.30
2023-01-23T23:56:26.813Z,709.10
2023-01-23T23:58:56.079Z,722.10
